Carrollton, Alabama
Current Conditions -  °F | °C
As of 10:53 AM on Thursday 30 Oct 2014 (Local Time) from KTCL Reporting Station
Clear Clear  
Wind Chill: 63°   Ceiling: Unl
Heat Index: 63°   Visibility: 10mi
Dew Point: 44°   Wind: 6mph
Humidity: 50%   Direction: 340°NNW
Pressure: 30.16"   Gusts: NA
Location:  33.26°N, 88.1°W
Report Text: KTCL 301553Z 34005KT 10SM CLR 17/07 A3016 RMK AO2 SLP212 T01720067
Loading
Personal Weather Stations






























Interactive Weather Map
Tropical Storm Tracking
New forecast layout! Learn more

10-Day Weather Forecast

Advertisements
Track Severe Weather on mobile